createdAt,value
2022-11-06T00:01:15.848Z,3.91
2022-11-06T00:03:43.302Z,3.91
2022-11-06T00:06:33.315Z,3.80
2022-11-06T00:09:02.741Z,3.86
2022-11-06T00:11:30.346Z,3.75
2022-11-06T00:13:57.773Z,3.66
2022-11-06T00:16:25.150Z,3.67
2022-11-06T00:18:52.612Z,3.58
2022-11-06T00:21:25.257Z,3.73
2022-11-06T00:23:53.406Z,3.78
2022-11-06T00:26:23.913Z,3.77
2022-11-06T00:28:51.566Z,3.76
2022-11-06T00:31:23.111Z,3.73
2022-11-06T00:33:50.374Z,3.73
2022-11-06T00:36:20.552Z,3.59
2022-11-06T00:38:48.033Z,3.60
2022-11-06T00:41:16.557Z,3.69
2022-11-06T00:43:47.917Z,3.77
2022-11-06T00:46:15.529Z,3.86
2022-11-06T00:48:43.096Z,3.92
2022-11-06T00:51:18.766Z,4.01
2022-11-06T00:53:46.419Z,4.02
2022-11-06T00:56:15.776Z,4.07
2022-11-06T00:58:43.060Z,4.03
2022-11-06T01:01:21.825Z,4.09
2022-11-06T01:03:58.943Z,4.06
2022-11-06T01:06:29.079Z,4.07
2022-11-06T01:08:56.890Z,4.07
2022-11-06T01:11:25.346Z,4.05
2022-11-06T01:13:55.216Z,4.01
2022-11-06T01:16:23.276Z,3.99
2022-11-06T01:18:51.034Z,3.98
2022-11-06T01:21:20.970Z,3.96
2022-11-06T01:23:52.007Z,3.93
2022-11-06T01:26:36.855Z,3.98
2022-11-06T01:29:09.282Z,3.91
2022-11-06T01:31:36.586Z,3.92
2022-11-06T01:34:04.476Z,3.97
2022-11-06T01:36:32.114Z,3.94
2022-11-06T01:39:01.198Z,3.92
2022-11-06T01:41:31.468Z,3.94
2022-11-06T01:43:59.967Z,4.03
2022-11-06T01:46:37.479Z,3.99
2022-11-06T01:49:14.066Z,3.95
2022-11-06T01:51:50.881Z,4.03
2022-11-06T01:54:18.772Z,4.09
2022-11-06T01:56:47.579Z,4.11
2022-11-06T01:59:17.075Z,4.07
2022-11-06T02:01:44.471Z,4.08
2022-11-06T02:04:16.326Z,4.07
2022-11-06T02:06:45.386Z,4.13
2022-11-06T02:09:12.585Z,4.16
2022-11-06T02:11:43.487Z,4.14
2022-11-06T02:14:32.510Z,4.17
2022-11-06T02:17:29.070Z,4.13
2022-11-06T02:20:41.674Z,4.17
2022-11-06T02:23:55.744Z,4.28
2022-11-06T02:26:47.432Z,4.28
2022-11-06T02:29:26.245Z,4.28
2022-11-06T02:31:55.629Z,4.32
2022-11-06T02:34:23.218Z,4.37
2022-11-06T02:37:00.219Z,4.31
2022-11-06T02:39:28.414Z,4.36
2022-11-06T02:41:56.644Z,4.33
2022-11-06T02:44:26.148Z,4.33
2022-11-06T02:46:59.327Z,4.24
2022-11-06T02:49:38.159Z,4.22
2022-11-06T02:52:13.453Z,4.23
2022-11-06T02:54:44.853Z,4.14
2022-11-06T02:57:15.770Z,4.10
2022-11-06T03:00:05.258Z,4.10
2022-11-06T03:02:56.225Z,4.03
2022-11-06T03:05:49.862Z,3.95
2022-11-06T03:08:37.220Z,3.98
2022-11-06T03:11:26.546Z,3.83
2022-11-06T03:13:58.946Z,3.79
2022-11-06T03:17:01.411Z,3.78
2022-11-06T03:19:46.052Z,3.72
2022-11-06T03:22:15.614Z,3.71
2022-11-06T03:24:56.714Z,3.67
2022-11-06T03:27:33.803Z,3.56
2022-11-06T03:30:07.156Z,3.56
2022-11-06T03:32:45.487Z,3.56
2022-11-06T03:35:33.297Z,3.51
2022-11-06T03:38:12.565Z,3.48
2022-11-06T03:40:47.390Z,3.49
2022-11-06T03:43:17.664Z,3.48
2022-11-06T03:45:45.239Z,3.47
2022-11-06T03:48:21.699Z,3.50
2022-11-06T03:51:10.841Z,3.55
2022-11-06T03:53:48.715Z,3.62
2022-11-06T03:56:42.573Z,3.57
2022-11-06T03:59:10.670Z,3.61
2022-11-06T04:01:42.719Z,3.62
2022-11-06T04:04:18.201Z,3.65
2022-11-06T04:06:53.487Z,3.67
2022-11-06T04:09:41.084Z,3.67
2022-11-06T04:12:27.709Z,3.70
2022-11-06T04:14:57.205Z,3.73
2022-11-06T04:17:28.244Z,3.69
2022-11-06T04:19:58.698Z,3.72
2022-11-06T04:22:58.603Z,3.78
2022-11-06T04:26:14.836Z,3.75
2022-11-06T04:28:53.019Z,3.55
2022-11-06T04:31:51.546Z,3.54
2022-11-06T04:34:36.796Z,3.48
2022-11-06T04:37:17.909Z,3.53
2022-11-06T04:40:07.681Z,3.44
2022-11-06T04:42:50.642Z,3.37
2022-11-06T04:45:23.738Z,3.36
2022-11-06T04:47:52.425Z,3.35
2022-11-06T04:50:20.995Z,3.36
2022-11-06T04:52:49.655Z,3.34
2022-11-06T04:55:16.874Z,3.33
2022-11-06T04:57:44.021Z,3.37
2022-11-06T05:00:14.462Z,3.48
2022-11-06T05:02:41.922Z,3.47
2022-11-06T05:05:09.489Z,3.52
2022-11-06T05:07:37.906Z,3.49
2022-11-06T05:10:05.785Z,3.55
2022-11-06T05:12:32.992Z,3.55
2022-11-06T05:15:00.150Z,3.58
2022-11-06T05:17:27.441Z,3.54
2022-11-06T05:19:54.617Z,3.58
2022-11-06T05:22:40.447Z,3.58
2022-11-06T05:25:08.000Z,3.54
2022-11-06T05:27:35.159Z,3.55
2022-11-06T05:30:02.687Z,3.58
2022-11-06T05:32:31.314Z,3.54
2022-11-06T05:34:58.610Z,3.59
2022-11-06T05:37:26.706Z,3.53
2022-11-06T05:39:53.848Z,3.55
2022-11-06T05:42:21.545Z,3.49
2022-11-06T05:44:48.714Z,3.53
2022-11-06T05:47:15.868Z,3.52
2022-11-06T05:49:43.078Z,3.50
2022-11-06T05:52:10.213Z,3.52
2022-11-06T05:54:37.357Z,3.46
2022-11-06T05:57:04.559Z,3.45
2022-11-06T05:59:31.713Z,3.46
2022-11-06T06:01:59.649Z,3.45
2022-11-06T06:04:26.891Z,3.44
2022-11-06T06:06:54.035Z,3.44
2022-11-06T06:09:21.230Z,3.36
2022-11-06T06:11:52.359Z,3.33
2022-11-06T06:14:20.139Z,3.34
2022-11-06T06:16:47.380Z,3.28
2022-11-06T06:19:14.964Z,3.21
2022-11-06T06:21:43.425Z,3.23
2022-11-06T06:24:10.605Z,3.18
2022-11-06T06:26:37.823Z,3.14
2022-11-06T06:29:05.174Z,3.22
2022-11-06T06:31:32.464Z,3.27
2022-11-06T06:33:59.610Z,3.23
2022-11-06T06:36:26.759Z,3.31
2022-11-06T06:38:54.356Z,3.37
2022-11-06T06:41:21.636Z,3.37
2022-11-06T06:43:49.634Z,3.42
2022-11-06T06:46:17.102Z,3.49
2022-11-06T06:48:44.276Z,3.50
2022-11-06T06:51:11.495Z,3.60
2022-11-06T06:53:38.682Z,3.70
2022-11-06T06:56:06.122Z,3.79
2022-11-06T06:58:33.963Z,3.90
2022-11-06T07:01:05.733Z,3.91
2022-11-06T07:03:33.102Z,3.97
2022-11-06T07:06:00.619Z,4.13
2022-11-06T07:08:28.518Z,4.19
2022-11-06T07:11:07.796Z,4.32
2022-11-06T07:13:36.308Z,4.39
2022-11-06T07:16:08.463Z,4.51
2022-11-06T07:18:36.515Z,4.63
2022-11-06T07:21:07.773Z,4.69
2022-11-06T07:23:35.988Z,4.78
2022-11-06T07:26:04.145Z,4.87
2022-11-06T07:28:31.906Z,4.98
2022-11-06T07:31:04.335Z,5.02
2022-11-06T07:33:31.940Z,5.13
2022-11-06T07:36:13.028Z,5.27
2022-11-06T07:38:41.465Z,5.34
2022-11-06T07:41:12.042Z,5.42
2022-11-06T07:43:39.707Z,5.53
2022-11-06T07:46:08.546Z,5.55
2022-11-06T07:48:35.990Z,5.54
2022-11-06T07:51:04.350Z,5.61
2022-11-06T07:53:31.566Z,5.76
2022-11-06T07:55:58.848Z,5.83
2022-11-06T07:58:26.277Z,5.96
2022-11-06T08:00:57.910Z,6.09
2022-11-06T08:03:26.221Z,6.22
2022-11-06T08:05:53.507Z,6.27
2022-11-06T08:08:20.670Z,6.40
2022-11-06T08:10:47.953Z,6.56
2022-11-06T08:13:17.634Z,6.66
2022-11-06T08:15:45.173Z,6.78
2022-11-06T08:18:13.080Z,6.90
2022-11-06T08:20:41.091Z,7.00
2022-11-06T08:23:11.819Z,7.12
2022-11-06T08:25:39.381Z,7.24
2022-11-06T08:28:06.703Z,7.36
2022-11-06T08:30:35.077Z,7.39
2022-11-06T08:33:05.264Z,7.52
2022-11-06T08:35:33.972Z,7.54
2022-11-06T08:38:01.253Z,7.53
2022-11-06T08:40:31.086Z,7.62
2022-11-06T08:43:07.029Z,7.61
2022-11-06T08:45:39.990Z,7.79
2022-11-06T08:48:07.983Z,7.84
2022-11-06T08:50:38.512Z,7.95
2022-11-06T08:53:07.037Z,7.99
2022-11-06T08:55:36.312Z,8.10
2022-11-06T08:58:04.174Z,8.20
2022-11-06T09:00:31.530Z,8.35
2022-11-06T09:03:06.282Z,8.34
2022-11-06T09:05:34.494Z,8.45
2022-11-06T09:08:01.885Z,8.63
2022-11-06T09:10:29.527Z,8.73
2022-11-06T09:12:59.165Z,8.91
2022-11-06T09:15:27.357Z,8.93
2022-11-06T09:17:55.016Z,9.14
2022-11-06T09:20:24.756Z,9.16
2022-11-06T09:22:52.694Z,9.26
2022-11-06T09:25:21.802Z,9.48
2022-11-06T09:27:57.351Z,9.63
2022-11-06T09:30:27.182Z,9.51
2022-11-06T09:33:00.722Z,9.50
2022-11-06T09:35:29.906Z,9.66
2022-11-06T09:38:04.670Z,9.71
2022-11-06T09:40:37.270Z,9.70
2022-11-06T09:43:23.649Z,9.76
2022-11-06T09:46:06.299Z,9.80
2022-11-06T09:48:43.930Z,10.07
2022-11-06T09:51:27.548Z,9.92
2022-11-06T09:54:13.251Z,10.11
2022-11-06T09:56:41.575Z,10.07
2022-11-06T09:59:14.327Z,10.04
2022-11-06T10:01:56.301Z,9.94
2022-11-06T10:04:55.201Z,9.98
2022-11-06T10:07:34.668Z,9.99
2022-11-06T10:10:18.212Z,10.24
2022-11-06T10:13:04.295Z,10.55
2022-11-06T10:15:36.687Z,10.46
2022-11-06T10:18:28.905Z,10.39
2022-11-06T10:21:22.041Z,10.27
2022-11-06T10:23:59.334Z,10.36
2022-11-06T10:26:35.674Z,10.44
2022-11-06T10:29:39.269Z,10.76
2022-11-06T10:32:27.048Z,10.66
2022-11-06T10:35:17.805Z,10.76
2022-11-06T10:37:49.009Z,10.87
2022-11-06T10:40:22.570Z,10.81
2022-11-06T10:43:07.001Z,10.81
2022-11-06T10:45:35.528Z,10.65
2022-11-06T10:48:16.923Z,10.73
2022-11-06T10:51:20.208Z,10.76
2022-11-06T10:54:07.022Z,10.81
2022-11-06T10:56:44.637Z,10.87
2022-11-06T10:59:12.228Z,11.08
2022-11-06T11:01:39.740Z,10.90
2022-11-06T11:04:07.027Z,10.80
2022-11-06T11:06:35.427Z,10.82
2022-11-06T11:09:02.602Z,10.82
2022-11-06T11:11:29.817Z,10.79
2022-11-06T11:13:57.135Z,10.82
2022-11-06T11:16:54.834Z,11.13
2022-11-06T11:19:38.130Z,11.13
2022-11-06T11:22:06.207Z,11.14
2022-11-06T11:24:33.735Z,11.06
2022-11-06T11:27:03.951Z,11.04
2022-11-06T11:29:44.735Z,11.13
2022-11-06T11:32:15.845Z,11.35
2022-11-06T11:34:53.911Z,11.34
2022-11-06T11:37:28.829Z,11.33
2022-11-06T11:39:56.601Z,11.16
2022-11-06T11:42:31.796Z,11.24
2022-11-06T11:45:14.361Z,10.90
2022-11-06T11:47:45.910Z,10.82
2022-11-06T11:50:36.833Z,10.81
2022-11-06T11:53:19.835Z,10.71
2022-11-06T11:55:49.386Z,10.62
2022-11-06T11:58:26.686Z,10.60
2022-11-06T12:00:56.931Z,10.57
2022-11-06T12:03:28.237Z,10.62
2022-11-06T12:06:05.693Z,10.50
2022-11-06T12:08:32.878Z,10.44
2022-11-06T12:11:04.815Z,10.35
2022-11-06T12:13:31.970Z,10.40
2022-11-06T12:16:02.909Z,10.30
2022-11-06T12:18:53.522Z,10.21
2022-11-06T12:21:28.113Z,10.23
2022-11-06T12:24:05.092Z,10.24
2022-11-06T12:26:33.064Z,10.18
2022-11-06T12:29:10.523Z,10.14
2022-11-06T12:32:02.438Z,10.07
2022-11-06T12:34:51.600Z,10.14
2022-11-06T12:37:23.704Z,10.09
2022-11-06T12:39:57.833Z,10.04
2022-11-06T12:42:30.011Z,10.09
2022-11-06T12:44:57.201Z,10.10
2022-11-06T12:47:46.198Z,10.09
2022-11-06T12:50:38.120Z,10.06
2022-11-06T12:53:38.228Z,10.02
2022-11-06T12:56:16.836Z,10.04
2022-11-06T12:58:58.263Z,9.96
2022-11-06T13:01:45.713Z,9.99
2022-11-06T13:04:29.537Z,9.96
2022-11-06T13:07:23.919Z,9.93
2022-11-06T13:10:03.858Z,9.99
2022-11-06T13:12:44.226Z,9.94
2022-11-06T13:15:11.331Z,9.97
2022-11-06T13:18:19.918Z,9.99
2022-11-06T13:20:57.824Z,9.91
2022-11-06T13:23:50.713Z,9.92
2022-11-06T13:26:36.322Z,9.92
2022-11-06T13:29:05.510Z,9.91
2022-11-06T13:31:51.612Z,9.94
2022-11-06T13:34:39.264Z,9.92
2022-11-06T13:37:29.903Z,9.87
2022-11-06T13:40:04.422Z,9.84
2022-11-06T13:42:36.587Z,9.92
2022-11-06T13:45:06.468Z,9.89
2022-11-06T13:47:48.743Z,9.87
2022-11-06T13:50:29.640Z,9.84
2022-11-06T13:53:22.965Z,9.81
2022-11-06T13:56:07.021Z,9.83
2022-11-06T13:58:59.253Z,9.84
2022-11-06T14:01:39.931Z,9.78
2022-11-06T14:04:33.257Z,9.84
2022-11-06T14:07:03.366Z,9.79
2022-11-06T14:09:33.184Z,9.72
2022-11-06T14:12:04.055Z,9.70
2022-11-06T14:14:33.126Z,9.67
2022-11-06T14:17:21.881Z,9.69
2022-11-06T14:19:51.979Z,9.66
2022-11-06T14:22:30.139Z,9.64
2022-11-06T14:25:02.258Z,9.59
2022-11-06T14:27:29.760Z,9.52
2022-11-06T14:31:05.652Z,9.57
2022-11-06T14:33:49.293Z,9.56
2022-11-06T14:36:25.451Z,9.49
2022-11-06T14:38:53.289Z,9.46
2022-11-06T14:41:40.092Z,9.39
2022-11-06T14:44:19.655Z,9.41
2022-11-06T14:46:51.546Z,9.37
2022-11-06T14:49:37.140Z,9.41
2022-11-06T14:52:12.935Z,9.40
2022-11-06T14:54:42.842Z,9.38
2022-11-06T14:57:15.411Z,9.31
2022-11-06T14:59:42.999Z,9.32
2022-11-06T15:02:22.454Z,9.34
2022-11-06T15:04:54.749Z,9.25
2022-11-06T15:10:42.646Z,9.19
2022-11-06T15:13:18.956Z,9.14
2022-11-06T15:15:48.228Z,9.07
2022-11-06T15:18:24.919Z,9.00
2022-11-06T15:20:58.711Z,8.97
2022-11-06T15:23:43.239Z,8.96
2022-11-06T15:26:27.025Z,8.94
2022-11-06T15:29:17.125Z,8.86
2022-11-06T15:31:47.168Z,8.76
2022-11-06T15:34:23.923Z,8.77
2022-11-06T15:36:55.275Z,8.65
2022-11-06T15:39:37.031Z,8.55
2022-11-06T15:42:13.766Z,8.51
2022-11-06T15:44:42.291Z,8.49
2022-11-06T15:47:20.910Z,8.43
2022-11-06T15:49:48.253Z,8.43
2022-11-06T15:52:18.889Z,8.34
2022-11-06T15:54:48.627Z,8.33
2022-11-06T15:57:26.139Z,8.23
2022-11-06T16:00:17.898Z,8.20
2022-11-06T16:02:57.319Z,8.17
2022-11-06T16:05:25.074Z,8.17
2022-11-06T16:08:16.368Z,8.20
2022-11-06T16:10:50.520Z,8.12
2022-11-06T16:13:19.992Z,8.09
2022-11-06T16:16:17.613Z,8.10
2022-11-06T16:18:45.819Z,8.02
2022-11-06T16:21:16.439Z,7.94
2022-11-06T16:23:49.103Z,7.92
2022-11-06T16:26:36.455Z,7.85
2022-11-06T16:29:19.876Z,7.79
2022-11-06T16:31:48.381Z,7.73
2022-11-06T16:34:42.173Z,7.73
2022-11-06T16:37:29.824Z,7.66
2022-11-06T16:40:00.155Z,7.58
2022-11-06T16:42:29.854Z,7.55
2022-11-06T16:45:01.410Z,7.54
2022-11-06T16:47:29.294Z,7.49
2022-11-06T16:49:58.261Z,7.46
2022-11-06T16:52:28.951Z,7.41
2022-11-06T16:55:21.580Z,7.33
2022-11-06T16:57:52.180Z,7.28
2022-11-06T17:00:31.770Z,7.24
2022-11-06T17:03:08.598Z,7.21
2022-11-06T17:05:37.992Z,7.12
2022-11-06T17:08:23.644Z,7.08
2022-11-06T17:10:58.676Z,7.02
2022-11-06T17:13:33.026Z,6.96
2022-11-06T17:16:05.369Z,6.89
2022-11-06T17:18:37.680Z,6.85
2022-11-06T17:21:07.133Z,6.77
2022-11-06T17:23:34.734Z,6.74
2022-11-06T17:26:21.664Z,6.73
2022-11-06T17:28:48.831Z,6.74
2022-11-06T17:31:17.439Z,6.71
2022-11-06T17:33:44.770Z,6.71
2022-11-06T17:36:24.927Z,6.72
2022-11-06T17:38:53.182Z,6.74
2022-11-06T17:41:29.989Z,6.63
2022-11-06T17:44:04.494Z,6.72
2022-11-06T17:46:37.395Z,6.73
2022-11-06T17:49:04.941Z,6.67
2022-11-06T17:51:50.165Z,6.65
2022-11-06T17:54:19.424Z,6.66
2022-11-06T17:56:47.150Z,6.56
2022-11-06T17:59:15.226Z,6.53
2022-11-06T18:01:42.674Z,6.44
2022-11-06T18:04:11.248Z,6.42
2022-11-06T18:06:38.403Z,6.38
2022-11-06T18:09:07.886Z,6.29
2022-11-06T18:11:41.683Z,6.18
2022-11-06T18:14:09.461Z,6.17
2022-11-06T18:16:43.391Z,6.06
2022-11-06T18:19:12.378Z,6.05
2022-11-06T18:21:39.561Z,6.07
2022-11-06T18:24:07.120Z,6.14
2022-11-06T18:26:34.314Z,6.23
2022-11-06T18:29:01.490Z,6.27
2022-11-06T18:31:38.342Z,6.30
2022-11-06T18:34:06.192Z,6.34
2022-11-06T18:36:35.014Z,6.34
2022-11-06T18:39:03.043Z,6.33
2022-11-06T18:41:30.565Z,6.34
2022-11-06T18:43:58.455Z,6.26
2022-11-06T18:46:26.942Z,6.16
2022-11-06T18:48:55.008Z,6.08
2022-11-06T18:51:35.085Z,5.86
2022-11-06T18:54:06.380Z,5.94
2022-11-06T18:56:35.864Z,5.97
2022-11-06T18:59:03.890Z,5.92
2022-11-06T19:01:31.305Z,5.92
2022-11-06T19:03:58.832Z,5.91
2022-11-06T19:06:26.131Z,5.91
2022-11-06T19:08:53.499Z,5.89
2022-11-06T19:11:20.862Z,5.87
2022-11-06T19:13:48.878Z,5.83
2022-11-06T19:16:19.542Z,5.87
2022-11-06T19:18:47.208Z,5.86
2022-11-06T19:21:14.390Z,5.90
2022-11-06T19:23:43.173Z,5.89
2022-11-06T19:26:30.654Z,5.91
2022-11-06T19:29:00.070Z,5.96
2022-11-06T19:31:30.587Z,5.87
2022-11-06T19:34:01.836Z,5.89
2022-11-06T19:36:29.709Z,5.89
2022-11-06T19:38:59.675Z,5.89
2022-11-06T19:41:27.521Z,5.89
2022-11-06T19:43:54.848Z,5.87
2022-11-06T19:46:26.146Z,5.91
2022-11-06T19:48:59.729Z,5.90
2022-11-06T19:51:26.885Z,5.85
2022-11-06T19:53:54.557Z,5.87
2022-11-06T19:56:22.442Z,5.91
2022-11-06T19:58:50.646Z,5.86
2022-11-06T20:01:18.269Z,5.84
2022-11-06T20:03:45.537Z,5.89
2022-11-06T20:06:13.343Z,5.90
2022-11-06T20:08:41.682Z,5.92
2022-11-06T20:11:14.322Z,5.90
2022-11-06T20:13:42.438Z,5.91
2022-11-06T20:16:13.037Z,5.94
2022-11-06T20:18:40.271Z,5.97
2022-11-06T20:21:09.694Z,5.94
2022-11-06T20:23:37.398Z,5.95
2022-11-06T20:26:06.159Z,5.98
2022-11-06T20:28:34.097Z,6.01
2022-11-06T20:31:08.937Z,6.03
2022-11-06T20:33:36.702Z,6.01
2022-11-06T20:36:19.236Z,6.01
2022-11-06T20:38:46.691Z,6.01
2022-11-06T20:41:14.852Z,5.98
2022-11-06T20:43:42.569Z,5.92
2022-11-06T20:46:10.676Z,5.92
2022-11-06T20:48:37.987Z,5.88
2022-11-06T20:51:12.014Z,5.83
2022-11-06T20:53:40.198Z,5.91
2022-11-06T20:56:10.566Z,5.87
2022-11-06T20:58:38.147Z,5.89
2022-11-06T21:01:07.420Z,5.90
2022-11-06T21:03:34.979Z,5.86
2022-11-06T21:06:02.556Z,5.91
2022-11-06T21:08:32.771Z,5.93
2022-11-06T21:11:07.185Z,5.91
2022-11-06T21:13:35.201Z,5.94
2022-11-06T21:16:05.254Z,5.95
2022-11-06T21:18:36.486Z,5.98
2022-11-06T21:21:05.817Z,6.00
2022-11-06T21:23:33.834Z,5.96
2022-11-06T21:26:09.433Z,5.94
2022-11-06T21:28:38.130Z,5.97
2022-11-06T21:31:25.780Z,5.99
2022-11-06T21:33:55.292Z,6.02
2022-11-06T21:36:25.576Z,6.03
2022-11-06T21:38:53.339Z,6.02
2022-11-06T21:41:22.374Z,6.00
2022-11-06T21:43:49.917Z,6.07
2022-11-06T21:46:18.507Z,6.10
2022-11-06T21:48:47.782Z,6.10
2022-11-06T21:51:27.092Z,6.12
2022-11-06T21:54:13.543Z,6.13
2022-11-06T21:56:42.259Z,6.12
2022-11-06T21:59:12.306Z,6.14
2022-11-06T22:01:40.564Z,6.13
2022-11-06T22:04:09.497Z,6.15
2022-11-06T22:06:38.981Z,6.14
2022-11-06T22:09:06.169Z,6.17
2022-11-06T22:11:35.416Z,6.21
2022-11-06T22:14:05.837Z,6.23
2022-11-06T22:16:36.135Z,6.20
2022-11-06T22:19:03.731Z,6.22
2022-11-06T22:21:31.405Z,6.22
2022-11-06T22:23:58.669Z,6.18
2022-11-06T22:26:29.217Z,6.19
2022-11-06T22:29:01.115Z,6.20
2022-11-06T22:31:29.245Z,6.25
2022-11-06T22:33:56.780Z,6.28
2022-11-06T22:36:24.550Z,6.35
2022-11-06T22:38:52.102Z,6.38
2022-11-06T22:41:21.771Z,6.34
2022-11-06T22:43:49.019Z,6.37
2022-11-06T22:46:19.438Z,6.40
2022-11-06T22:48:47.284Z,6.42
2022-11-06T22:51:16.775Z,6.44
2022-11-06T22:53:44.145Z,6.40
2022-11-06T22:56:12.628Z,6.39
2022-11-06T22:58:40.579Z,6.40
2022-11-06T23:01:08.711Z,6.38
2022-11-06T23:03:36.108Z,6.44
2022-11-06T23:06:08.315Z,6.44
2022-11-06T23:08:38.840Z,6.43
2022-11-06T23:11:11.998Z,6.39
2022-11-06T23:13:39.542Z,6.42
2022-11-06T23:16:09.824Z,6.42
2022-11-06T23:18:37.271Z,6.48
2022-11-06T23:21:12.614Z,6.51
2022-11-06T23:23:40.112Z,6.52
2022-11-06T23:26:14.740Z,6.56
2022-11-06T23:28:42.370Z,6.58
2022-11-06T23:31:11.384Z,6.57
2022-11-06T23:33:38.564Z,6.58
2022-11-06T23:36:10.831Z,6.68
2022-11-06T23:38:38.186Z,6.69
2022-11-06T23:41:26.812Z,6.72
2022-11-06T23:43:54.610Z,6.73
2022-11-06T23:46:23.364Z,6.86
2022-11-06T23:48:50.576Z,6.90
2022-11-06T23:51:17.763Z,6.88
2022-11-06T23:53:44.944Z,6.89
2022-11-06T23:56:13.318Z,6.93
2022-11-06T23:58:40.968Z,6.98
